Time;durP1;ratioP1;P1;durP2;ratioP2;P2;SDS_P1;SDS_P2;PMS_P1;PMS_P2;Temp;Humidity;BMP_temperature;BMP_pressure;BME280_temperature;BME280_humidity;BME280_pressure;Samples;Min_cycle;Max_cycle;Signal;HPM_P1;HPM_P2
2023/07/31 00:05:26;;;;;;;33.55;12.88;;;;;;;14.91;100.00;100799.56;5054729;28;20313;-85
2023/07/31 00:07:51;;;;;;;32.83;12.50;;;;;;;14.91;100.00;100794.19;5057364;28;20045;-85
2023/07/31 00:10:16;;;;;;;30.07;11.70;;;;;;;14.93;100.00;100798.28;5054570;28;20291;-84
2023/07/31 00:12:43;;;;;;;31.45;12.80;;;;;;;14.81;100.00;100790.28;5061146;28;20292;-87
2023/07/31 00:18:30;;;;;;;34.05;10.68;;;;;;;14.81;100.00;100798.34;5054054;28;20048;-86
2023/07/31 00:20:55;;;;;;;33.33;10.40;;;;;;;14.85;100.00;100796.81;5052963;28;20096;-86
2023/07/31 00:26:42;;;;;;;28.13;10.77;;;;;;;14.80;100.00;100788.66;5054108;28;20321;-81
2023/07/31 00:32:29;;;;;;;32.33;9.63;;;;;;;14.83;100.00;100798.13;5054557;28;20095;-81
2023/07/31 00:34:55;;;;;;;33.65;9.75;;;;;;;14.72;100.00;100782.81;5053996;28;20461;-81
2023/07/31 00:37:20;;;;;;;38.13;10.53;;;;;;;14.77;100.00;100786.44;5060685;28;20078;-81
2023/07/31 00:39:45;;;;;;;29.55;10.13;;;;;;;14.79;100.00;100775.44;5054908;28;20276;-80
2023/07/31 00:42:10;;;;;;;30.70;9.60;;;;;;;14.81;100.00;100786.78;5053210;28;20040;-81
2023/07/31 00:47:58;;;;;;;28.65;8.07;;;;;;;14.81;100.00;100789.47;5054047;28;20279;-85
2023/07/31 00:50:25;;;;;;;24.50;9.95;;;;;;;14.79;100.00;100784.31;5060797;28;20045;-85
2023/07/31 00:52:50;;;;;;;23.67;8.80;;;;;;;14.80;100.00;100785.13;5052714;28;20029;-86
2023/07/31 00:55:16;;;;;;;33.60;10.02;;;;;;;14.73;100.00;100771.00;5054261;28;20075;-85
2023/07/31 00:57:42;;;;;;;26.10;8.63;;;;;;;14.74;100.00;100778.00;5055577;28;20064;-84
2023/07/31 01:00:08;;;;;;;27.95;9.25;;;;;;;14.82;100.00;100777.63;5052393;28;20481;-84
2023/07/31 01:02:35;;;;;;;25.92;8.82;;;;;;;14.79;100.00;100780.81;5055500;28;20044;-84
2023/07/31 01:08:50;;;;;;;18.50;8.15;;;;;;;14.79;100.00;100772.75;5060462;28;20087;-83
2023/07/31 01:14:18;;;;;;;22.08;8.00;;;;;;;14.81;100.00;100773.31;5053695;28;19924;-86
2023/07/31 01:16:43;;;;;;;25.85;7.80;;;;;;;14.80;100.00;100769.81;5060116;28;20037;-87
2023/07/31 01:19:10;;;;;;;24.40;7.82;;;;;;;14.81;100.00;100767.94;5052074;28;20111;-88
2023/07/31 01:21:36;;;;;;;25.98;8.65;;;;;;;14.83;100.00;100774.69;5060208;28;20052;-84
2023/07/31 01:24:20;;;;;;;17.10;6.57;;;;;;;14.87;100.00;100773.16;5053271;28;20029;-85
2023/07/31 01:26:53;;;;;;;21.77;7.00;;;;;;;14.81;100.00;100778.69;5053073;28;20400;-84
2023/07/31 01:29:27;;;;;;;;;;;;;;;14.82;100.00;100783.00;5049267;28;20557;-82
2023/07/31 01:31:55;;;;;;;23.95;7.25;;;;;;;14.83;100.00;100779.25;5053119;28;19916;-84
2023/07/31 01:34:22;;;;;;;18.95;7.32;;;;;;;14.82;100.00;100775.75;5059928;28;20055;-87
2023/07/31 01:40:09;;;;;;;22.80;7.68;;;;;;;14.78;100.00;100780.00;5060136;28;20419;-85
2023/07/31 01:42:34;;;;;;;24.38;7.25;;;;;;;14.79;100.00;100773.56;5052830;28;20021;-85
2023/07/31 01:48:21;;;;;;;22.08;7.22;;;;;;;14.73;100.00;100771.00;5053119;28;20283;-88
2023/07/31 01:50:46;;;;;;;18.65;7.55;;;;;;;14.72;100.00;100769.38;5052982;28;20381;-87
2023/07/31 01:53:13;;;;;;;21.67;8.25;;;;;;;14.67;100.00;100762.03;5059594;28;20048;-86
2023/07/31 01:55:38;;;;;;;22.95;6.88;;;;;;;14.67;100.00;100761.22;5052869;28;20021;-83
2023/07/31 01:58:03;;;;;;;20.58;7.38;;;;;;;14.63;100.00;100754.69;5051429;28;20020;-84
2023/07/31 02:00:29;;;;;;;22.52;6.25;;;;;;;14.65;100.00;100755.25;5059611;28;20120;-86
2023/07/31 02:02:54;;;;;;;17.33;7.80;;;;;;;14.65;100.00;100748.00;5052644;28;20053;-87
2023/07/31 02:08:41;;;;;;;20.38;6.82;;;;;;;14.58;100.00;100750.03;5052594;28;20302;-82
2023/07/31 02:11:06;;;;;;;25.80;7.50;;;;;;;14.60;100.00;100747.09;5052526;28;20466;-83
2023/07/31 02:13:31;;;;;;;20.58;7.75;;;;;;;14.61;100.00;100751.41;5059403;28;20049;-83
2023/07/31 02:15:57;;;;;;;22.45;7.90;;;;;;;14.56;100.00;100744.09;5052532;28;20032;-84
2023/07/31 02:21:44;;;;;;;26.92;7.18;;;;;;;14.54;100.00;100741.63;5052295;28;20126;-85
2023/07/31 02:24:10;;;;;;;17.37;7.27;;;;;;;14.54;100.00;100741.63;5051150;28;20072;-82
2023/07/31 02:26:35;;;;;;;21.30;8.27;;;;;;;14.51;100.00;100734.03;5054075;28;20284;-83
2023/07/31 02:29:00;;;;;;;21.67;7.33;;;;;;;14.50;100.00;100731.59;5051766;28;20035;-81
2023/07/31 02:34:47;;;;;;;21.88;7.13;;;;;;;14.50;100.00;100736.97;5052164;28;20083;-82
2023/07/31 02:37:12;;;;;;;25.52;7.63;;;;;;;14.48;100.00;100729.16;5056989;28;20492;-81
2023/07/31 02:42:59;;;;;;;22.13;8.02;;;;;;;14.43;100.00;100723.66;5052589;28;20320;-89
2023/07/31 02:45:25;;;;;;;18.30;7.40;;;;;;;14.41;100.00;100714.97;5059081;28;20041;-87
2023/07/31 02:51:11;;;;;;;21.02;7.22;;;;;;;14.44;100.00;100719.91;5052300;28;20282;-83
2023/07/31 02:53:37;;;;;;;24.70;8.13;;;;;;;14.39;100.00;100713.59;5052028;28;20036;-84
2023/07/31 02:59:25;;;;;;;21.15;7.50;;;;;;;14.39;100.00;100719.78;5051846;28;20344;-84
2023/07/31 03:05:12;;;;;;;23.55;8.00;;;;;;;14.46;100.00;100717.81;5052485;28;20409;-84
2023/07/31 03:07:37;;;;;;;24.80;7.67;;;;;;;14.37;100.00;100704.94;5050558;28;20017;-87
2023/07/31 03:13:24;;;;;;;20.40;7.57;;;;;;;14.45;100.00;100718.03;5051616;28;20282;-85
2023/07/31 03:15:50;;;;;;;19.98;7.40;;;;;;;14.42;100.00;100719.31;5058289;28;20492;-84
2023/07/31 03:21:37;;;;;;;18.13;6.53;;;;;;;14.41;100.00;100716.84;5051751;28;20457;-85
2023/07/31 03:24:03;;;;;;;22.77;8.50;;;;;;;14.42;100.00;100718.50;5051319;28;20112;-82
2023/07/31 03:29:51;;;;;;;15.70;6.80;;;;;;;14.43;100.00;100712.09;5051762;28;20047;-83
2023/07/31 03:35:37;;;;;;;24.10;8.02;;;;;;;14.42;100.00;100697.78;5051758;28;20171;-87
2023/07/31 03:38:03;;;;;;;21.33;7.97;;;;;;;14.40;100.00;100697.22;5050262;28;20477;-83
2023/07/31 03:40:28;;;;;;;21.07;7.87;;;;;;;14.44;100.00;100701.06;5054121;28;20293;-84
2023/07/31 03:42:53;;;;;;;25.33;7.32;;;;;;;14.46;100.00;100696.31;5054291;28;20291;-85
2023/07/31 03:45:19;;;;;;;20.15;6.97;;;;;;;14.46;100.00;100696.31;5054867;28;20037;-86
2023/07/31 03:47:44;;;;;;;21.15;7.53;;;;;;;14.49;100.00;100695.81;5061644;28;20055;-85
2023/07/31 03:50:10;;;;;;;24.73;8.88;;;;;;;14.48;100.00;100678.03;5054934;28;20115;-85
2023/07/31 03:55:57;;;;;;;20.63;7.05;;;;;;;14.53;100.00;100680.81;5054647;28;20278;-84
2023/07/31 03:58:22;;;;;;;28.77;7.55;;;;;;;14.50;100.00;100667.84;5056196;28;20393;-85
2023/07/31 04:00:47;;;;;;;23.73;7.27;;;;;;;14.57;100.00;100673.06;5059712;28;20390;-85
2023/07/31 04:03:12;;;;;;;24.90;8.10;;;;;;;14.57;100.00;100670.38;5054520;28;20287;-82
2023/07/31 04:08:59;;;;;;;15.85;7.38;;;;;;;14.62;100.00;100661.56;5054583;28;20126;-85
2023/07/31 04:11:25;;;;;;;18.57;6.77;;;;;;;14.60;100.00;100659.09;5061137;28;20083;-88
2023/07/31 04:13:50;;;;;;;23.87;8.30;;;;;;;14.63;100.00;100655.09;5054788;28;20271;-86
2023/07/31 04:16:15;;;;;;;17.07;6.93;;;;;;;14.65;100.00;100650.28;5053118;28;20857;-88
2023/07/31 04:18:40;;;;;;;24.02;7.90;;;;;;;14.66;100.00;100647.34;5056274;28;20287;-89
2023/07/31 04:21:06;;;;;;;15.90;6.17;;;;;;;14.73;100.00;100647.19;5054352;28;20393;-85
2023/07/31 04:23:31;;;;;;;23.13;6.50;;;;;;;14.70;100.00;100634.22;5054288;28;20299;-86
2023/07/31 04:25:56;;;;;;;26.03;9.40;;;;;;;14.78;100.00;100647.28;5060903;28;20889;-84
2023/07/31 04:28:21;;;;;;;20.23;6.55;;;;;;;14.83;100.00;100650.84;5052745;28;20367;-85
2023/07/31 04:30:47;;;;;;;20.00;6.97;;;;;;;14.90;100.00;100658.75;5060678;28;20048;-87
2023/07/31 04:36:34;;;;;;;17.58;6.57;;;;;;;14.87;100.00;100641.22;5054283;28;20036;-85
2023/07/31 04:45:47;;;;;;;21.13;6.68;;;;;;;14.94;100.00;100626.75;5055109;28;20125;-86
2023/07/31 04:48:15;;;;;;;22.58;6.90;;;;;;;14.96;100.00;100636.22;5053129;28;20043;-86
2023/07/31 04:50:41;;;;;;;20.58;8.23;;;;;;;14.97;100.00;100623.56;5056498;28;20511;-85
2023/07/31 04:53:06;;;;;;;18.38;6.93;;;;;;;14.97;100.00;100610.94;5051984;28;20123;-89
2023/07/31 04:55:31;;;;;;;22.98;8.25;;;;;;;15.04;100.00;100619.66;5052241;28;20082;-83
2023/07/31 04:57:58;;;;;;;21.23;8.13;;;;;;;15.07;100.00;100621.84;5060439;28;20397;-84
2023/07/31 05:00:23;;;;;;;16.52;7.38;;;;;;;15.06;100.00;100608.63;5053651;28;20275;-82
2023/07/31 05:06:10;;;;;;;20.23;8.35;;;;;;;15.11;100.00;100601.44;5053474;28;20333;-85
2023/07/31 05:08:35;;;;;;;25.60;7.75;;;;;;;15.15;100.00;100617.91;5052141;28;20404;-84
2023/07/31 05:11:02;;;;;;;20.83;8.00;;;;;;;15.12;100.00;100608.44;5060140;28;20396;-86
2023/07/31 05:16:48;;;;;;;20.60;7.82;;;;;;;15.04;100.00;100606.19;5053743;28;20058;-87
2023/07/31 05:22:35;;;;;;;19.52;8.05;;;;;;;14.98;100.00;100600.97;5059498;28;20399;-88
2023/07/31 05:28:22;;;;;;;20.83;7.63;;;;;;;14.91;100.00;100593.06;5053476;28;20079;-87
2023/07/31 05:30:47;;;;;;;19.85;8.27;;;;;;;14.93;100.00;100599.03;5055138;28;20436;-83
2023/07/31 05:33:13;;;;;;;21.63;8.97;;;;;;;14.88;100.00;100580.13;5051716;28;20393;-83
2023/07/31 05:35:38;;;;;;;16.43;8.13;;;;;;;14.90;100.00;100586.06;5054058;28;20271;-85
2023/07/31 05:41:25;;;;;;;17.48;7.18;;;;;;;14.94;100.00;100586.38;5053974;28;20453;-90
2023/07/31 05:43:51;;;;;;;12.27;7.33;;;;;;;14.93;100.00;100574.78;5055604;28;20132;-84
2023/07/31 05:49:38;;;;;;;15.55;6.90;;;;;;;14.85;100.00;100569.84;5059000;28;20079;-87
2023/07/31 05:55:28;;;;;;;14.05;6.80;;;;;;;14.88;100.00;100558.56;5053107;28;20082;-85
2023/07/31 06:04:36;;;;;;;12.15;6.28;;;;;;;14.93;100.00;100547.88;5052326;28;20086;-83
2023/07/31 06:07:03;;;;;;;12.40;5.77;;;;;;;14.98;100.00;100547.94;5054385;28;20037;-84
2023/07/31 06:09:28;;;;;;;14.98;6.00;;;;;;;14.98;100.00;100553.31;5060692;28;20283;-84
2023/07/31 06:15:15;;;;;;;11.23;5.78;;;;;;;15.01;100.00;100543.91;5054056;28;20075;-83
2023/07/31 06:17:41;;;;;;;10.68;5.68;;;;;;;15.00;100.00;100534.22;5051618;28;20059;-86
2023/07/31 06:23:28;;;;;;;9.75;4.80;;;;;;;15.01;100.00;100530.47;5052764;28;20427;-87
2023/07/31 06:29:14;;;;;;;10.10;5.05;;;;;;;15.03;100.00;100521.06;5052448;28;20052;-88
2023/07/31 06:35:01;;;;;;;12.55;5.65;;;;;;;15.07;100.00;100519.53;5052253;28;20279;-86
2023/07/31 06:40:49;;;;;;;13.88;6.78;;;;;;;15.15;100.00;100532.53;5052061;28;20044;-84
2023/07/31 06:43:14;;;;;;;10.95;6.20;;;;;;;15.23;100.00;100525.06;5053972;28;20049;-83
2023/07/31 06:45:39;;;;;;;10.80;6.05;;;;;;;15.16;100.00;100501.03;5053438;28;20025;-86
2023/07/31 06:48:04;;;;;;;11.95;6.00;;;;;;;15.21;100.00;100505.66;5056905;28;20047;-86
2023/07/31 06:53:51;;;;;;;10.18;6.00;;;;;;;15.23;100.00;100504.31;5052803;28;20301;-89
2023/07/31 06:56:17;;;;;;;13.10;7.13;;;;;;;15.21;100.00;100506.47;5059305;28;20048;-86
2023/07/31 07:02:21;;;;;;;9.70;6.05;;;;;;;15.26;100.00;100506.50;5053114;28;20048;-88
2023/07/31 07:08:08;;;;;;;10.77;6.63;;;;;;;15.35;100.00;100493.44;5058427;28;20062;-86
2023/07/31 07:13:55;;;;;;;11.23;6.20;;;;;;;15.46;100.00;100497.84;5052274;28;20404;-93
2023/07/31 07:19:42;;;;;;;10.02;6.07;;;;;;;15.46;100.00;100508.63;5052118;28;20349;-82
2023/07/31 07:22:07;;;;;;;7.13;5.18;;;;;;;15.48;100.00;100490.31;5058208;28;20072;-81
2023/07/31 07:24:33;;;;;;;8.85;5.20;;;;;;;15.45;100.00;100493.50;5051181;28;20031;-79
2023/07/31 07:30:20;;;;;;;12.18;6.13;;;;;;;15.38;100.00;100488.34;5051599;28;20689;-83
2023/07/31 07:36:09;;;;;;;10.88;6.32;;;;;;;15.44;100.00;100495.41;5051240;28;20063;-81
2023/07/31 07:41:56;;;;;;;13.73;6.70;;;;;;;15.43;100.00;100482.19;5051395;28;20112;-81
2023/07/31 07:47:43;;;;;;;13.27;7.65;;;;;;;15.43;100.00;100490.25;5051269;28;20933;-81
2023/07/31 07:53:30;;;;;;;13.90;7.80;;;;;;;15.51;100.00;100473.63;5051549;28;20032;-79
2023/07/31 07:59:17;;;;;;;15.00;8.57;;;;;;;15.62;100.00;100486.19;5051150;28;20274;-80
2023/07/31 08:05:04;;;;;;;12.65;8.40;;;;;;;15.56;100.00;100484.44;5051248;28;20091;-79
2023/07/31 08:10:51;;;;;;;12.55;8.15;;;;;;;15.56;100.00;100481.75;5050897;28;20170;-83
2023/07/31 08:16:38;;;;;;;18.23;8.98;;;;;;;15.57;100.00;100475.28;5051398;28;20124;-82
2023/07/31 08:22:25;;;;;;;16.77;8.65;;;;;;;15.61;100.00;100484.56;5051111;28;20056;-82
2023/07/31 08:28:12;;;;;;;16.27;7.70;;;;;;;15.59;100.00;100488.53;5053026;28;20056;-82
2023/07/31 08:33:59;;;;;;;14.20;7.55;;;;;;;15.67;100.00;100470.03;5054672;28;20059;-81
2023/07/31 08:39:46;;;;;;;12.95;7.88;;;;;;;15.70;100.00;100464.13;5054421;28;20405;-79
2023/07/31 08:45:34;;;;;;;15.30;8.05;;;;;;;15.62;100.00;100480.78;5053834;28;20279;-82
2023/07/31 08:51:21;;;;;;;16.15;8.57;;;;;;;15.59;100.00;100477.75;5054191;28;20619;-83
2023/07/31 08:57:11;;;;;;;15.18;8.18;;;;;;;15.57;100.00;100480.69;5053800;28;20044;-81
2023/07/31 09:03:09;;;;;;;16.75;8.48;;;;;;;15.54;100.00;100477.69;5053897;28;20044;-86
2023/07/31 09:05:36;;;;;;;16.92;9.02;;;;;;;15.65;100.00;100476.75;5055495;28;20033;-84
2023/07/31 09:08:04;;;;;;;17.40;9.80;;;;;;;15.59;100.00;100467.78;5053555;28;20477;-82
2023/07/31 09:10:29;;;;;;;17.58;10.05;;;;;;;15.61;100.00;100465.69;5053541;28;20029;-84
2023/07/31 09:16:16;;;;;;;17.52;9.95;;;;;;;15.62;100.00;100472.69;5053559;28;20043;-85
2023/07/31 09:18:58;;;;;;;17.80;9.40;;;;;;;15.62;100.00;100470.00;5055286;28;20025;-84
2023/07/31 09:21:24;;;;;;;13.30;7.70;;;;;;;15.65;100.00;100466.78;5052026;28;20271;-85
2023/07/31 09:23:49;;;;;;;20.42;12.88;;;;;;;15.68;100.00;100466.28;5060015;28;20888;-83
2023/07/31 09:26:35;;;;;;;15.80;9.65;;;;;;;15.80;100.00;100474.19;5051997;28;20025;-81
2023/07/31 09:29:03;;;;;;;21.95;9.18;;;;;;;15.77;100.00;100464.72;5051911;28;20029;-84
2023/07/31 09:31:38;;;;;;;19.25;9.50;;;;;;;15.84;100.00;100475.28;5055213;28;20037;-84
2023/07/31 09:34:03;;;;;;;17.38;9.82;;;;;;;15.82;100.00;100463.13;5051715;28;20428;-82
2023/07/31 09:36:31;;;;;;;19.30;9.43;;;;;;;15.86;100.00;100470.44;5059844;28;20041;-82
2023/07/31 09:39:03;;;;;;;19.17;9.55;;;;;;;15.88;100.00;100464.78;5050559;28;20356;-86
2023/07/31 09:44:50;;;;;;;16.75;8.80;;;;;;;15.95;100.00;100457.31;5053020;28;20120;-84
2023/07/31 09:47:25;;;;;;;15.53;8.67;;;;;;;16.02;100.00;100472.19;5054936;28;20052;-85
2023/07/31 09:49:51;;;;;;;16.65;9.30;;;;;;;16.16;100.00;100466.34;5052635;28;20282;-84
2023/07/31 09:52:16;;;;;;;16.30;8.48;;;;;;;16.26;100.00;100461.03;5051479;28;20025;-83
2023/07/31 09:54:41;;;;;;;13.53;8.33;;;;;;;16.40;100.00;100464.88;5054738;28;20102;-85
2023/07/31 09:57:08;;;;;;;10.63;7.83;;;;;;;16.53;100.00;100460.91;5052674;28;20362;-83
2023/07/31 09:59:34;;;;;;;11.55;7.22;;;;;;;16.50;100.00;100464.13;5056660;28;20870;-82
2023/07/31 10:01:59;;;;;;;13.90;7.70;;;;;;;16.45;100.00;100454.09;5051348;28;20029;-85
2023/07/31 10:04:27;;;;;;;13.40;7.60;;;;;;;16.56;100.00;100461.19;5052547;28;20033;-82
2023/07/31 10:06:53;;;;;;;13.70;8.02;;;;;;;16.53;100.00;100456.31;5059410;28;20119;-84
2023/07/31 10:09:21;;;;;;;11.43;7.43;;;;;;;16.59;100.00;100459.84;5051228;28;20431;-83
2023/07/31 10:11:53;;;;;;;9.15;7.10;;;;;;;16.66;100.00;100450.47;5054462;28;20037;-83
2023/07/31 10:14:22;;;;;;;11.77;7.38;;;;;;;16.99;100.00;100459.22;5052396;28;20028;-81
2023/07/31 10:16:49;;;;;;;8.52;6.82;;;;;;;17.39;100.00;100463.09;5053289;28;20572;-83
2023/07/31 10:19:14;;;;;;;9.32;6.78;;;;;;;17.61;100.00;100456.34;5053837;28;20037;-84
2023/07/31 10:25:02;;;;;;;8.77;6.45;;;;;;;17.60;100.00;100457.41;5052458;28;20051;-83
2023/07/31 10:27:27;;;;;;;12.43;5.18;;;;;;;17.51;100.00;100469.84;5052101;28;20027;-85
2023/07/31 10:29:55;;;;;;;10.63;5.90;;;;;;;17.39;100.00;100457.69;5059041;28;20055;-86
2023/07/31 10:32:22;;;;;;;11.85;5.70;;;;;;;17.44;100.00;100463.91;5051026;28;20025;-88
2023/07/31 10:34:49;;;;;;;10.63;5.88;;;;;;;17.51;100.00;100471.75;5052253;28;20029;-85
2023/07/31 10:37:24;;;;;;;9.27;5.88;;;;;;;17.76;100.00;100466.38;5057102;28;20036;-84
2023/07/31 10:40:05;;;;;;;7.85;5.57;;;;;;;17.85;100.00;100474.75;5050895;28;20037;-85
2023/07/31 10:42:41;;;;;;;9.00;4.93;;;;;;;17.79;100.00;100467.75;5058683;28;20040;-86
2023/07/31 10:45:12;;;;;;;6.78;5.15;;;;;;;17.85;100.00;100445.00;5052193;28;20369;-83
2023/07/31 10:47:38;;;;;;;10.68;5.25;;;;;;;17.75;100.00;100472.88;5054493;28;20047;-87
2023/07/31 10:50:17;;;;;;;8.98;4.97;;;;;;;17.76;100.00;100484.50;5050259;28;20059;-85
2023/07/31 10:52:51;;;;;;;9.48;4.95;;;;;;;17.50;100.00;100462.03;5050585;28;20561;-84
2023/07/31 10:55:42;;;;;;;9.23;5.00;;;;;;;17.50;100.00;100481.75;5053961;28;20049;-82
2023/07/31 10:58:13;;;;;;;7.95;5.38;;;;;;;17.55;100.00;100475.53;5051922;28;20469;-85
2023/07/31 11:00:44;;;;;;;9.52;5.65;;;;;;;17.57;100.00;100476.88;5058545;28;20052;-87
2023/07/31 11:03:15;;;;;;;7.75;5.22;;;;;;;17.49;100.00;100473.91;5051947;28;20479;-87
2023/07/31 11:06:03;;;;;;;7.68;5.20;;;;;;;17.36;100.00;100458.22;5055779;28;20484;-86
2023/07/31 11:08:30;;;;;;;9.88;5.57;;;;;;;17.31;100.00;100461.72;5051636;28;20033;-84
2023/07/31 11:11:01;;;;;;;9.43;6.00;;;;;;;17.49;100.00;100463.09;5051647;28;20542;-83
2023/07/31 11:13:31;;;;;;;9.20;5.50;;;;;;;17.87;100.00;100453.66;5058311;28;20175;-85
2023/07/31 11:15:57;;;;;;;7.85;5.60;;;;;;;18.10;100.00;100455.81;5051621;28;20396;-84
2023/07/31 11:18:23;;;;;;;8.38;5.82;;;;;;;18.27;100.00;100455.50;5058298;28;20045;-83
2023/07/31 11:20:48;;;;;;;12.48;5.57;;;;;;;18.29;100.00;100445.22;5051437;28;20056;-84
2023/07/31 11:23:17;;;;;;;5.68;4.30;;;;;;;18.15;100.00;100455.78;5050257;28;20477;-84
2023/07/31 11:25:42;;;;;;;8.32;5.05;;;;;;;17.97;100.00;100461.78;5053531;28;20033;-84
2023/07/31 11:28:11;;;;;;;8.85;4.70;;;;;;;17.86;100.00;100463.66;5050404;28;20036;-92
2023/07/31 11:30:36;;;;;;;8.75;5.10;;;;;;;17.76;100.00;100447.47;5053446;28;20080;-83
2023/07/31 11:33:03;;;;;;;8.75;5.35;;;;;;;17.63;100.00;100453.34;5051324;28;20475;-85
2023/07/31 11:35:41;;;;;;;9.38;5.60;;;;;;;17.59;100.00;100447.69;5051689;28;20370;-83
2023/07/31 11:38:07;;;;;;;7.80;4.72;;;;;;;17.86;100.00;100436.63;5054662;28;20052;-85
2023/07/31 11:40:44;;;;;;;8.90;5.63;;;;;;;18.30;100.00;100441.44;5051463;28;20025;-82
2023/07/31 11:43:11;;;;;;;9.20;5.55;;;;;;;18.42;100.00;100436.50;5057965;28;20045;-84
2023/07/31 11:45:39;;;;;;;10.57;5.57;;;;;;;18.61;100.00;100436.72;5051115;28;20033;-83
2023/07/31 11:48:04;;;;;;;8.45;5.30;;;;;;;18.47;100.00;100436.47;5058016;28;20048;-86
2023/07/31 11:50:33;;;;;;;6.55;4.55;;;;;;;18.49;100.00;100431.59;5051365;28;20025;-83
2023/07/31 11:53:04;;;;;;;8.50;4.50;;;;;;;18.34;100.00;100439.78;5051154;28;20029;-84
2023/07/31 11:55:29;;;;;;;6.90;4.03;;;;;;;18.21;100.00;100422.25;5058007;28;20040;-83
2023/07/31 11:57:58;;;;;;;8.07;4.72;;;;;;;18.22;100.00;100431.16;5051071;28;20025;-84
2023/07/31 12:00:24;;;;;;;8.05;4.38;;;;;;;18.27;100.00;100444.69;5057750;28;20040;-85
2023/07/31 12:02:51;;;;;;;8.02;4.32;;;;;;;18.32;100.00;100436.53;5051082;28;20108;-85
2023/07/31 12:05:17;;;;;;;9.48;4.70;;;;;;;18.17;100.00;100429.25;5054647;28;20033;-86
2023/07/31 12:07:47;;;;;;;8.07;4.43;;;;;;;18.14;100.00;100431.72;5056802;28;20098;-84
2023/07/31 12:10:32;;;;;;;5.88;4.20;;;;;;;18.16;100.00;100435.75;5054571;28;20100;-84
2023/07/31 12:13:04;;;;;;;10.02;4.53;;;;;;;18.10;100.00;100447.69;5061161;28;20145;-84
2023/07/31 12:15:33;;;;;;;;;;;;;;;18.15;100.00;100428.72;5054768;28;20488;-84
2023/07/31 12:17:59;;;;;;;8.73;4.68;;;;;;;17.99;100.00;100450.69;5054309;28;20427;-83
2023/07/31 12:20:24;;;;;;;10.82;5.65;;;;;;;18.09;100.00;100439.84;5060908;28;20041;-83
2023/07/31 12:26:16;;;;;;;7.65;5.32;;;;;;;18.31;100.00;100412.47;5054442;28;20071;-87
2023/07/31 12:28:48;;;;;;;6.45;4.95;;;;;;;18.16;100.00;100419.53;5052822;28;20017;-85
2023/07/31 12:31:19;;;;;;;11.02;6.05;;;;;;;18.07;100.00;100415.75;5061428;28;20141;-87
2023/07/31 12:33:46;;;;;;;8.48;5.72;;;;;;;17.99;100.00;100418.22;5053081;28;20021;-86
2023/07/31 12:36:16;;;;;;;13.07;7.25;;;;;;;17.93;100.00;100428.25;5055444;28;20106;-87
2023/07/31 12:38:42;;;;;;;8.13;5.63;;;;;;;17.90;100.00;100417.94;5058072;28;20033;-84
2023/07/31 12:41:07;;;;;;;7.70;5.57;;;;;;;17.87;100.00;100410.38;5054135;28;20051;-84
2023/07/31 12:43:34;;;;;;;12.15;7.20;;;;;;;17.76;100.00;100416.91;5060455;28;20045;-82
2023/07/31 12:45:59;;;;;;;10.30;6.95;;;;;;;17.64;100.00;100415.25;5053878;28;20488;-85
2023/07/31 12:48:25;;;;;;;11.80;6.60;;;;;;;17.52;100.00;100408.50;5055433;28;20018;-86
2023/07/31 12:50:50;;;;;;;10.60;6.82;;;;;;;17.44;100.00;100399.03;5054569;28;20129;-86
2023/07/31 12:53:16;;;;;;;13.30;7.65;;;;;;;17.37;100.00;100384.97;5053752;28;20025;-86
2023/07/31 12:55:41;;;;;;;13.00;7.95;;;;;;;17.47;100.00;100393.09;5060601;28;20067;-83
2023/07/31 12:58:06;;;;;;;11.63;8.00;;;;;;;17.54;100.00;100385.50;5052325;28;20071;-84
2023/07/31 13:00:32;;;;;;;12.23;7.77;;;;;;;17.62;100.00;100384.13;5055337;28;20393;-86
2023/07/31 13:06:19;;;;;;;12.07;8.10;;;;;;;17.57;100.00;100376.84;5054108;28;20059;-85
2023/07/31 13:08:44;;;;;;;14.02;8.05;;;;;;;17.63;100.00;100378.47;5060442;28;20032;-84
2023/07/31 13:11:09;;;;;;;13.97;8.07;;;;;;;17.67;100.00;100378.78;5053395;28;20033;-84
2023/07/31 13:13:35;;;;;;;11.47;7.67;;;;;;;17.75;100.00;100377.41;5060023;28;20809;-83
2023/07/31 13:16:00;;;;;;;16.97;9.03;;;;;;;17.75;100.00;100377.41;5053706;28;20290;-85
2023/07/31 13:18:25;;;;;;;15.77;8.82;;;;;;;17.83;100.00;100380.38;5052068;28;20275;-84
2023/07/31 13:20:51;;;;;;;11.60;7.47;;;;;;;17.90;100.00;100385.47;5060119;28;20102;-85
2023/07/31 13:23:16;;;;;;;16.50;8.00;;;;;;;17.97;100.00;100385.22;5053121;28;20287;-85
2023/07/31 13:25:41;;;;;;;12.70;7.90;;;;;;;17.98;100.00;100381.44;5059952;28;20291;-85
2023/07/31 13:28:07;;;;;;;13.15;7.72;;;;;;;17.97;100.00;100361.69;5052024;28;20617;-87
2023/07/31 13:30:32;;;;;;;14.55;7.10;;;;;;;17.88;100.00;100358.72;5052026;28;20070;-88
2023/07/31 13:32:58;;;;;;;12.02;6.88;;;;;;;17.86;100.00;100365.47;5060088;28;20040;-86
2023/07/31 13:35:23;;;;;;;11.57;7.10;;;;;;;17.79;100.00;100363.06;5053361;28;20115;-85
2023/07/31 13:37:48;;;;;;;13.63;7.43;;;;;;;17.80;100.00;100350.34;5059870;28;20290;-87
2023/07/31 13:40:13;;;;;;;11.20;7.97;;;;;;;17.78;100.00;100344.41;5053111;28;20800;-87
2023/07/31 13:42:39;;;;;;;14.67;7.50;;;;;;;17.72;100.00;100364.44;5051875;28;20287;-82
2023/07/31 13:45:05;;;;;;;12.80;7.07;;;;;;;17.55;100.00;100362.78;5059853;28;20295;-84
2023/07/31 13:47:31;;;;;;;14.00;7.57;;;;;;;17.45;100.00;100365.50;5053020;28;20037;-85
2023/07/31 13:49:56;;;;;;;13.85;8.40;;;;;;;17.30;100.00;100357.38;5054917;28;20509;-84
2023/07/31 13:52:21;;;;;;;13.88;8.18;;;;;;;17.22;100.00;100353.34;5052788;28;20033;-84
2023/07/31 13:54:46;;;;;;;13.35;8.18;;;;;;;17.26;100.00;100346.31;5051696;28;20102;-83
2023/07/31 14:00:35;;;;;;;18.50;8.30;;;;;;;17.21;100.00;100340.09;5053024;28;20321;-84
2023/07/31 14:03:00;;;;;;;19.77;9.45;;;;;;;17.22;100.00;100347.94;5059307;28;20069;-83
2023/07/31 14:05:25;;;;;;;20.70;9.40;;;;;;;17.27;100.00;100361.44;5052507;28;20037;-84
2023/07/31 14:07:50;;;;;;;12.93;7.73;;;;;;;17.23;100.00;100346.03;5059571;28;20383;-83
2023/07/31 14:10:16;;;;;;;19.38;9.50;;;;;;;17.19;100.00;100350.38;5052591;28;20363;-84
2023/07/31 14:12:41;;;;;;;16.38;9.40;;;;;;;17.30;100.00;100354.69;5052415;28;20033;-84
2023/07/31 14:15:07;;;;;;;16.92;9.52;;;;;;;17.20;100.00;100346.59;5059343;28;20054;-82
2023/07/31 14:17:32;;;;;;;16.08;9.43;;;;;;;17.13;100.00;100346.06;5052374;28;20028;-86
2023/07/31 14:19:57;;;;;;;17.33;8.97;;;;;;;17.15;100.00;100349.28;5059093;28;20484;-83
2023/07/31 14:22:30;;;;;;;13.73;8.73;;;;;;;17.13;100.00;100333.34;5051051;28;20287;-84
2023/07/31 14:24:55;;;;;;;15.00;9.30;;;;;;;17.09;100.00;100331.47;5050374;28;20021;-82
2023/07/31 14:27:20;;;;;;;16.30;8.95;;;;;;;17.07;100.00;100330.94;5054222;28;20044;-84
2023/07/31 14:29:46;;;;;;;14.90;8.47;;;;;;;17.05;100.00;100314.97;5052169;28;20029;-83
2023/07/31 14:32:11;;;;;;;18.70;9.20;;;;;;;17.13;100.00;100329.84;5058950;28;20294;-83
2023/07/31 14:34:36;;;;;;;14.50;8.87;;;;;;;17.12;100.00;100322.81;5052091;28;20700;-86
2023/07/31 14:37:01;;;;;;;14.80;8.40;;;;;;;17.18;100.00;100327.13;5052026;28;20286;-84
2023/07/31 14:39:27;;;;;;;16.30;9.03;;;;;;;17.18;100.00;100303.63;5054142;28;20029;-84
2023/07/31 14:41:52;;;;;;;17.57;9.07;;;;;;;17.16;100.00;100308.50;5051990;28;20307;-87
2023/07/31 14:44:17;;;;;;;21.20;9.05;;;;;;;17.23;100.00;100300.91;5054266;28;20295;-84
2023/07/31 14:46:42;;;;;;;14.90;7.87;;;;;;;17.10;100.00;100287.16;5051892;28;20033;-83
2023/07/31 14:49:08;;;;;;;14.90;8.38;;;;;;;16.98;100.00;100295.50;5051943;28;20340;-84
2023/07/31 14:51:33;;;;;;;13.37;8.00;;;;;;;16.96;100.00;100292.28;5058839;28;20045;-83
2023/07/31 14:53:58;;;;;;;15.10;8.10;;;;;;;16.91;100.00;100295.78;5051817;28;20300;-85
2023/07/31 14:56:23;;;;;;;14.60;6.87;;;;;;;16.90;100.00;100280.66;5058736;28;20071;-83